sensor_id;sensor_type;location;lat;lon;timestamp;pressure;altitude;pressure_sealevel;temperature;humidity
15405;BME280;7801;48.124;11.590;2023-08-17T00:00:46;95551.69;;;21.56;88.30
15405;BME280;7801;48.124;11.590;2023-08-17T00:03:11;95550.78;;;21.49;88.57
15405;BME280;7801;48.124;11.590;2023-08-17T00:05:37;95547.44;;;21.55;88.30
15405;BME280;7801;48.124;11.590;2023-08-17T00:08:02;95550.47;;;21.54;88.34
15405;BME280;7801;48.124;11.590;2023-08-17T00:10:28;95547.78;;;21.54;88.28
15405;BME280;7801;48.124;11.590;2023-08-17T00:17:45;95551.47;;;21.46;89.03
15405;BME280;7801;48.124;11.590;2023-08-17T00:20:10;95545.66;;;21.44;88.88
15405;BME280;7801;48.124;11.590;2023-08-17T00:22:37;95539.47;;;21.43;88.87
15405;BME280;7801;48.124;11.590;2023-08-17T00:25:03;95546.06;;;21.46;88.62
15405;BME280;7801;48.124;11.590;2023-08-17T00:27:31;95540.69;;;21.46;88.47
15405;BME280;7801;48.124;11.590;2023-08-17T00:29:57;95546.66;;;21.36;89.07
15405;BME280;7801;48.124;11.590;2023-08-17T00:32:22;95546.16;;;21.30;89.36
15405;BME280;7801;48.124;11.590;2023-08-17T00:34:47;95543.91;;;21.32;89.29
15405;BME280;7801;48.124;11.590;2023-08-17T00:37:13;95545.31;;;21.26;89.52
15405;BME280;7801;48.124;11.590;2023-08-17T00:39:38;95550.34;;;21.27;89.34
15405;BME280;7801;48.124;11.590;2023-08-17T00:42:03;95550.06;;;21.33;89.06
15405;BME280;7801;48.124;11.590;2023-08-17T00:44:29;95547.38;;;21.33;88.95
15405;BME280;7801;48.124;11.590;2023-08-17T00:46:56;95556.03;;;21.22;89.46
15405;BME280;7801;48.124;11.590;2023-08-17T00:49:22;95555.09;;;21.15;89.95
15405;BME280;7801;48.124;11.590;2023-08-17T00:51:47;95552.03;;;21.16;89.92
15405;BME280;7801;48.124;11.590;2023-08-17T00:54:14;95547.50;;;21.20;89.85
15405;BME280;7801;48.124;11.590;2023-08-17T00:56:43;95545.25;;;21.22;89.71
15405;BME280;7801;48.124;11.590;2023-08-17T00:59:11;95538.97;;;21.18;89.77
15405;BME280;7801;48.124;11.590;2023-08-17T01:01:37;95539.84;;;21.22;89.84
15405;BME280;7801;48.124;11.590;2023-08-17T01:04:02;95526.00;;;21.24;89.69
15405;BME280;7801;48.124;11.590;2023-08-17T01:06:27;95538.97;;;21.18;90.15
15405;BME280;7801;48.124;11.590;2023-08-17T01:08:53;95543.22;;;21.00;91.09
15405;BME280;7801;48.124;11.590;2023-08-17T01:11:41;95542.94;;;21.05;90.78
15405;BME280;7801;48.124;11.590;2023-08-17T01:16:53;95538.94;;;20.80;91.53
15405;BME280;7801;48.124;11.590;2023-08-17T01:19:27;95538.72;;;20.69;92.15
15405;BME280;7801;48.124;11.590;2023-08-17T01:21:57;95536.81;;;20.70;92.18
15405;BME280;7801;48.124;11.590;2023-08-17T01:24:25;95539.59;;;20.73;91.88
15405;BME280;7801;48.124;11.590;2023-08-17T01:26:52;95548.38;;;20.70;91.88
15405;BME280;7801;48.124;11.590;2023-08-17T01:29:18;95545.25;;;20.68;92.09
15405;BME280;7801;48.124;11.590;2023-08-17T01:32:01;95552.16;;;20.50;92.75
15405;BME280;7801;48.124;11.590;2023-08-17T01:34:33;95552.34;;;20.57;92.55
15405;BME280;7801;48.124;11.590;2023-08-17T01:37:05;95555.94;;;20.65;92.25
15405;BME280;7801;48.124;11.590;2023-08-17T01:39:38;95557.59;;;20.69;91.82
15405;BME280;7801;48.124;11.590;2023-08-17T01:42:06;95551.06;;;20.70;91.92
15405;BME280;7801;48.124;11.590;2023-08-17T01:44:32;95546.09;;;20.72;91.81
15405;BME280;7801;48.124;11.590;2023-08-17T01:46:59;95542.72;;;20.59;92.61
15405;BME280;7801;48.124;11.590;2023-08-17T01:49:26;95536.22;;;20.61;92.72
15405;BME280;7801;48.124;11.590;2023-08-17T01:51:51;95537.06;;;20.65;92.44
15405;BME280;7801;48.124;11.590;2023-08-17T01:54:18;95534.66;;;20.59;92.44
15405;BME280;7801;48.124;11.590;2023-08-17T01:56:44;95540.19;;;20.67;92.24
15405;BME280;7801;48.124;11.590;2023-08-17T01:59:10;95539.78;;;20.65;92.33
15405;BME280;7801;48.124;11.590;2023-08-17T02:01:35;95533.38;;;20.53;92.81
15405;BME280;7801;48.124;11.590;2023-08-17T02:04:01;95522.50;;;20.50;93.10
15405;BME280;7801;48.124;11.590;2023-08-17T02:06:28;95529.81;;;20.49;93.03
15405;BME280;7801;48.124;11.590;2023-08-17T02:08:55;95522.94;;;20.52;92.63
15405;BME280;7801;48.124;11.590;2023-08-17T02:11:21;95516.91;;;20.58;92.46
15405;BME280;7801;48.124;11.590;2023-08-17T02:13:46;95513.03;;;20.56;92.43
15405;BME280;7801;48.124;11.590;2023-08-17T02:16:11;95519.91;;;20.53;92.48
15405;BME280;7801;48.124;11.590;2023-08-17T02:18:38;95523.38;;;20.38;92.91
15405;BME280;7801;48.124;11.590;2023-08-17T02:21:03;95519.13;;;20.37;92.99
15405;BME280;7801;48.124;11.590;2023-08-17T02:23:28;95513.22;;;20.32;93.01
15405;BME280;7801;48.124;11.590;2023-08-17T02:25:54;95511.66;;;20.31;93.18
15405;BME280;7801;48.124;11.590;2023-08-17T02:28:19;95510.00;;;20.26;93.34
15405;BME280;7801;48.124;11.590;2023-08-17T02:30:46;95513.47;;;20.27;93.29
15405;BME280;7801;48.124;11.590;2023-08-17T02:33:11;95507.31;;;20.26;93.29
15405;BME280;7801;48.124;11.590;2023-08-17T02:35:37;95504.53;;;20.22;93.37
15405;BME280;7801;48.124;11.590;2023-08-17T02:38:02;95500.88;;;20.31;92.88
15405;BME280;7801;48.124;11.590;2023-08-17T02:40:27;95500.00;;;20.27;93.05
15405;BME280;7801;48.124;11.590;2023-08-17T02:42:53;95497.03;;;20.32;92.83
15405;BME280;7801;48.124;11.590;2023-08-17T02:45:18;95508.69;;;20.20;93.27
15405;BME280;7801;48.124;11.590;2023-08-17T02:47:43;95504.25;;;20.28;92.77
15405;BME280;7801;48.124;11.590;2023-08-17T02:50:09;95504.00;;;20.33;92.50
15405;BME280;7801;48.124;11.590;2023-08-17T02:52:36;95510.44;;;20.28;92.56
15405;BME280;7801;48.124;11.590;2023-08-17T02:55:01;95508.44;;;20.25;92.67
15405;BME280;7801;48.124;11.590;2023-08-17T02:57:26;95508.25;;;20.18;92.76
15405;BME280;7801;48.124;11.590;2023-08-17T02:59:53;95512.72;;;20.10;93.13
15405;BME280;7801;48.124;11.590;2023-08-17T03:02:18;95510.91;;;20.14;93.01
15405;BME280;7801;48.124;11.590;2023-08-17T03:04:43;95506.28;;;20.15;92.80
15405;BME280;7801;48.124;11.590;2023-08-17T03:07:09;95504.44;;;20.19;92.65
15405;BME280;7801;48.124;11.590;2023-08-17T03:09:34;95508.69;;;20.20;92.30
15405;BME280;7801;48.124;11.590;2023-08-17T03:11:59;95513.66;;;20.18;92.30
15405;BME280;7801;48.124;11.590;2023-08-17T03:14:26;95508.25;;;20.18;92.31
15405;BME280;7801;48.124;11.590;2023-08-17T03:16:52;95508.12;;;20.11;92.73
15405;BME280;7801;48.124;11.590;2023-08-17T03:19:18;95508.72;;;20.04;92.88
15405;BME280;7801;48.124;11.590;2023-08-17T03:21:43;95514.88;;;20.05;92.96
15405;BME280;7801;48.124;11.590;2023-08-17T03:24:09;95514.44;;;20.03;93.16
15405;BME280;7801;48.124;11.590;2023-08-17T03:26:34;95511.50;;;20.08;92.60
15405;BME280;7801;48.124;11.590;2023-08-17T03:28:59;95512.63;;;20.07;92.63
15405;BME280;7801;48.124;11.590;2023-08-17T03:31:25;95522.53;;;20.03;92.62
15405;BME280;7801;48.124;11.590;2023-08-17T03:33:50;95517.34;;;19.94;93.02
15405;BME280;7801;48.124;11.590;2023-08-17T03:36:15;95523.12;;;19.96;92.79
15405;BME280;7801;48.124;11.590;2023-08-17T03:38:42;95524.34;;;19.99;92.83
15405;BME280;7801;48.124;11.590;2023-08-17T03:41:07;95526.87;;;19.92;93.08
15405;BME280;7801;48.124;11.590;2023-08-17T03:43:33;95527.06;;;19.83;93.51
15405;BME280;7801;48.124;11.590;2023-08-17T03:45:59;95522.34;;;19.96;92.92
15405;BME280;7801;48.124;11.590;2023-08-17T03:48:25;95523.56;;;19.98;92.65
15405;BME280;7801;48.124;11.590;2023-08-17T03:50:54;95516.97;;;19.80;93.39
15405;BME280;7801;48.124;11.590;2023-08-17T03:53:20;95519.84;;;19.87;93.36
15405;BME280;7801;48.124;11.590;2023-08-17T03:55:47;95521.56;;;19.79;93.68
15405;BME280;7801;48.124;11.590;2023-08-17T03:58:12;95518.38;;;19.89;93.25
15405;BME280;7801;48.124;11.590;2023-08-17T04:00:38;95519.50;;;19.88;93.41
15405;BME280;7801;48.124;11.590;2023-08-17T04:03:04;95520.72;;;19.91;93.33
15405;BME280;7801;48.124;11.590;2023-08-17T04:05:29;95534.87;;;19.88;93.20
15405;BME280;7801;48.124;11.590;2023-08-17T04:07:55;95532.19;;;19.88;93.35
15405;BME280;7801;48.124;11.590;2023-08-17T04:10:20;95536.97;;;19.95;92.94
15405;BME280;7801;48.124;11.590;2023-08-17T04:12:45;95530.38;;;19.92;92.87
15405;BME280;7801;48.124;11.590;2023-08-17T04:15:12;95536.19;;;19.94;92.81
15405;BME280;7801;48.124;11.590;2023-08-17T04:17:37;95535.81;;;19.96;92.42
15405;BME280;7801;48.124;11.590;2023-08-17T04:20:03;95536.00;;;19.87;92.69
15405;BME280;7801;48.124;11.590;2023-08-17T04:22:29;95540.84;;;19.97;92.53
15405;BME280;7801;48.124;11.590;2023-08-17T04:24:55;95534.09;;;19.87;92.70
15405;BME280;7801;48.124;11.590;2023-08-17T04:27:20;95544.88;;;19.87;92.59
15405;BME280;7801;48.124;11.590;2023-08-17T04:29:46;95548.06;;;19.77;92.88
15405;BME280;7801;48.124;11.590;2023-08-17T04:32:15;95550.50;;;19.82;92.65
15405;BME280;7801;48.124;11.590;2023-08-17T04:34:43;95555.69;;;19.75;92.82
15405;BME280;7801;48.124;11.590;2023-08-17T04:37:08;95553.28;;;19.86;92.37
15405;BME280;7801;48.124;11.590;2023-08-17T04:39:34;95553.03;;;19.91;92.09
15405;BME280;7801;48.124;11.590;2023-08-17T04:41:59;95551.28;;;19.83;92.50
15405;BME280;7801;48.124;11.590;2023-08-17T04:44:24;95559.28;;;19.79;92.76
15405;BME280;7801;48.124;11.590;2023-08-17T04:46:51;95557.47;;;19.83;92.71
15405;BME280;7801;48.124;11.590;2023-08-17T04:49:16;95560.06;;;19.80;92.97
15405;BME280;7801;48.124;11.590;2023-08-17T04:51:41;95563.72;;;19.87;92.63
15405;BME280;7801;48.124;11.590;2023-08-17T04:54:07;95562.41;;;19.81;92.93
15405;BME280;7801;48.124;11.590;2023-08-17T04:56:33;95564.84;;;19.71;92.97
15405;BME280;7801;48.124;11.590;2023-08-17T04:58:59;95563.25;;;19.70;93.29
15405;BME280;7801;48.124;11.590;2023-08-17T05:01:25;95564.97;;;19.62;93.57
15405;BME280;7801;48.124;11.590;2023-08-17T05:03:51;95566.75;;;19.70;93.38
15405;BME280;7801;48.124;11.590;2023-08-17T05:06:16;95557.78;;;19.66;93.88
15405;BME280;7801;48.124;11.590;2023-08-17T05:08:42;95559.34;;;19.67;94.19
15405;BME280;7801;48.124;11.590;2023-08-17T05:11:08;95565.34;;;19.76;94.04
15405;BME280;7801;48.124;11.590;2023-08-17T05:13:34;95579.25;;;19.78;94.36
15405;BME280;7801;48.124;11.590;2023-08-17T05:15:59;95564.50;;;19.88;93.77
15405;BME280;7801;48.124;11.590;2023-08-17T05:18:25;95564.59;;;19.92;93.55
15405;BME280;7801;48.124;11.590;2023-08-17T05:20:51;95569.28;;;19.95;93.62
15405;BME280;7801;48.124;11.590;2023-08-17T05:23:17;95566.06;;;19.89;94.08
15405;BME280;7801;48.124;11.590;2023-08-17T05:25:46;95569.34;;;19.98;93.87
15405;BME280;7801;48.124;11.590;2023-08-17T05:28:11;95571.38;;;20.01;93.66
15405;BME280;7801;48.124;11.590;2023-08-17T05:30:36;95571.03;;;20.03;94.07
15405;BME280;7801;48.124;11.590;2023-08-17T05:33:02;95576.59;;;20.10;93.80
15405;BME280;7801;48.124;11.590;2023-08-17T05:35:27;95567.88;;;20.01;94.35
15405;BME280;7801;48.124;11.590;2023-08-17T05:37:54;95575.03;;;20.09;94.11
15405;BME280;7801;48.124;11.590;2023-08-17T05:40:19;95565.56;;;20.15;94.15
15405;BME280;7801;48.124;11.590;2023-08-17T05:42:45;95568.16;;;20.11;94.23
15405;BME280;7801;48.124;11.590;2023-08-17T05:45:11;95574.16;;;20.20;93.70
15405;BME280;7801;48.124;11.590;2023-08-17T05:47:36;95569.28;;;20.26;93.54
15405;BME280;7801;48.124;11.590;2023-08-17T05:50:01;95568.16;;;20.27;93.63
15405;BME280;7801;48.124;11.590;2023-08-17T05:52:27;95567.81;;;20.29;94.01
15405;BME280;7801;48.124;11.590;2023-08-17T05:54:53;95565.47;;;20.27;94.55
15405;BME280;7801;48.124;11.590;2023-08-17T05:57:19;95566.31;;;20.31;94.44
15405;BME280;7801;48.124;11.590;2023-08-17T05:59:44;95570.16;;;20.30;94.61
15405;BME280;7801;48.124;11.590;2023-08-17T06:02:09;95574.16;;;20.36;94.46
15405;BME280;7801;48.124;11.590;2023-08-17T06:04:35;95573.47;;;20.39;94.42
15405;BME280;7801;48.124;11.590;2023-08-17T06:07:00;95575.91;;;20.44;94.25
15405;BME280;7801;48.124;11.590;2023-08-17T06:09:26;95579.03;;;20.46;94.59
15405;BME280;7801;48.124;11.590;2023-08-17T06:11:52;95572.16;;;20.49;94.58
15405;BME280;7801;48.124;11.590;2023-08-17T06:14:18;95571.03;;;20.50;94.48
15405;BME280;7801;48.124;11.590;2023-08-17T06:16:43;95574.59;;;20.54;93.93
15405;BME280;7801;48.124;11.590;2023-08-17T06:19:08;95576.78;;;20.48;93.62
15405;BME280;7801;48.124;11.590;2023-08-17T06:21:35;95580.78;;;20.54;93.60
15405;BME280;7801;48.124;11.590;2023-08-17T06:24:00;95589.34;;;20.60;93.34
15405;BME280;7801;48.124;11.590;2023-08-17T06:26:25;95583.34;;;20.67;92.96
15405;BME280;7801;48.124;11.590;2023-08-17T06:28:52;95575.00;;;20.72;92.71
15405;BME280;7801;48.124;11.590;2023-08-17T06:31:18;95587.47;;;20.80;92.29
15405;BME280;7801;48.124;11.590;2023-08-17T06:33:44;95589.91;;;20.85;92.15
15405;BME280;7801;48.124;11.590;2023-08-17T06:36:10;95590.06;;;20.92;92.19
15405;BME280;7801;48.124;11.590;2023-08-17T06:38:40;95581.72;;;20.97;92.21
15405;BME280;7801;48.124;11.590;2023-08-17T06:41:06;95570.69;;;21.06;92.07
15405;BME280;7801;48.124;11.590;2023-08-17T06:43:32;95579.09;;;21.20;91.98
15405;BME280;7801;48.124;11.590;2023-08-17T06:45:59;95579.50;;;21.38;90.89
15405;BME280;7801;48.124;11.590;2023-08-17T06:48:25;95580.13;;;21.50;89.95
15405;BME280;7801;48.124;11.590;2023-08-17T06:50:51;95586.38;;;21.54;90.45
15405;BME280;7801;48.124;11.590;2023-08-17T06:53:16;95582.19;;;21.57;89.77
15405;BME280;7801;48.124;11.590;2023-08-17T06:55:42;95581.47;;;21.60;89.72
15405;BME280;7801;48.124;11.590;2023-08-17T06:58:07;95576.34;;;21.55;90.36
15405;BME280;7801;48.124;11.590;2023-08-17T07:00:32;95582.19;;;21.57;89.96
15405;BME280;7801;48.124;11.590;2023-08-17T07:03:00;95582.28;;;21.64;89.33
15405;BME280;7801;48.124;11.590;2023-08-17T07:05:27;95588.47;;;21.65;89.03
15405;BME280;7801;48.124;11.590;2023-08-17T07:07:54;95589.63;;;21.64;88.81
15405;BME280;7801;48.124;11.590;2023-08-17T07:10:20;95586.41;;;21.77;88.56
15405;BME280;7801;48.124;11.590;2023-08-17T07:12:46;95586.53;;;21.84;87.70
15405;BME280;7801;48.124;11.590;2023-08-17T07:15:13;95590.56;;;21.94;87.82
15405;BME280;7801;48.124;11.590;2023-08-17T07:17:38;95595.63;;;21.95;87.35
15405;BME280;7801;48.124;11.590;2023-08-17T07:20:04;95591.97;;;22.07;86.10
15405;BME280;7801;48.124;11.590;2023-08-17T07:22:31;95591.97;;;22.07;85.94
15405;BME280;7801;48.124;11.590;2023-08-17T07:24:58;95593.97;;;22.10;86.04
15405;BME280;7801;48.124;11.590;2023-08-17T07:27:23;95601.00;;;22.15;86.21
15405;BME280;7801;48.124;11.590;2023-08-17T07:29:48;95604.97;;;22.21;85.44
15405;BME280;7801;48.124;11.590;2023-08-17T07:32:14;95597.31;;;22.26;83.92
15405;BME280;7801;48.124;11.590;2023-08-17T07:34:39;95597.38;;;22.30;83.85
15405;BME280;7801;48.124;11.590;2023-08-17T07:37:04;95598.59;;;22.33;83.57
15405;BME280;7801;48.124;11.590;2023-08-17T07:39:31;95602.19;;;22.40;83.40
15405;BME280;7801;48.124;11.590;2023-08-17T07:41:57;95599.59;;;22.47;83.34
15405;BME280;7801;48.124;11.590;2023-08-17T07:44:23;95596.28;;;22.57;81.77
15405;BME280;7801;48.124;11.590;2023-08-17T07:46:50;95603.63;;;22.57;82.78
15405;BME280;7801;48.124;11.590;2023-08-17T07:49:15;95601.03;;;22.64;82.97
15405;BME280;7801;48.124;11.590;2023-08-17T07:51:42;95608.72;;;22.62;82.71
15405;BME280;7801;48.124;11.590;2023-08-17T07:54:07;95601.81;;;22.65;82.44
15405;BME280;7801;48.124;11.590;2023-08-17T07:56:32;95596.44;;;22.68;82.38
15405;BME280;7801;48.124;11.590;2023-08-17T07:58:59;95597.63;;;22.71;82.50
15405;BME280;7801;48.124;11.590;2023-08-17T08:01:24;95591.91;;;22.76;82.98
15405;BME280;7801;48.124;11.590;2023-08-17T08:03:51;95588.06;;;22.77;82.84
15405;BME280;7801;48.124;11.590;2023-08-17T08:06:18;95590.50;;;22.82;82.69
15405;BME280;7801;48.124;11.590;2023-08-17T08:08:45;95592.12;;;22.90;81.65
15405;BME280;7801;48.124;11.590;2023-08-17T08:11:11;95593.28;;;22.89;82.35
15405;BME280;7801;48.124;11.590;2023-08-17T08:13:36;95589.13;;;22.95;81.79
15405;BME280;7801;48.124;11.590;2023-08-17T08:16:03;95591.53;;;23.00;81.62
15405;BME280;7801;48.124;11.590;2023-08-17T08:18:30;95589.97;;;22.99;81.39
15405;BME280;7801;48.124;11.590;2023-08-17T08:20:55;95595.84;;;23.05;81.21
15405;BME280;7801;48.124;11.590;2023-08-17T08:23:21;95588.22;;;23.14;80.34
15405;BME280;7801;48.124;11.590;2023-08-17T08:25:46;95575.16;;;23.19;80.25
15405;BME280;7801;48.124;11.590;2023-08-17T08:28:13;95581.81;;;23.25;80.16
15405;BME280;7801;48.124;11.590;2023-08-17T08:30:39;95578.06;;;23.37;80.12
15405;BME280;7801;48.124;11.590;2023-08-17T08:33:05;95580.63;;;23.56;79.02
15405;BME280;7801;48.124;11.590;2023-08-17T08:35:30;95589.63;;;23.64;78.80
15405;BME280;7801;48.124;11.590;2023-08-17T08:37:55;95584.62;;;23.66;80.44
15405;BME280;7801;48.124;11.590;2023-08-17T08:40:27;95583.06;;;23.65;80.46
15405;BME280;7801;48.124;11.590;2023-08-17T08:42:53;95586.59;;;23.69;80.27
15405;BME280;7801;48.124;11.590;2023-08-17T08:45:18;95584.62;;;23.66;78.46
15405;BME280;7801;48.124;11.590;2023-08-17T08:47:45;95583.53;;;23.74;78.53
15405;BME280;7801;48.124;11.590;2023-08-17T08:50:15;95588.59;;;23.76;79.82
15405;BME280;7801;48.124;11.590;2023-08-17T08:52:45;95592.91;;;23.80;79.55
15405;BME280;7801;48.124;11.590;2023-08-17T08:55:17;95582.13;;;23.87;77.75
15405;BME280;7801;48.124;11.590;2023-08-17T08:57:43;95577.59;;;23.98;77.33
15405;BME280;7801;48.124;11.590;2023-08-17T09:00:09;95588.59;;;24.16;76.72
15405;BME280;7801;48.124;11.590;2023-08-17T09:02:34;95583.22;;;24.20;77.27
15405;BME280;7801;48.124;11.590;2023-08-17T09:05:01;95580.09;;;24.18;78.24
15405;BME280;7801;48.124;11.590;2023-08-17T09:07:29;95578.09;;;24.11;78.05
15405;BME280;7801;48.124;11.590;2023-08-17T09:09:56;95580.06;;;24.14;77.51
15405;BME280;7801;48.124;11.590;2023-08-17T09:12:22;95581.66;;;24.19;76.66
15405;BME280;7801;48.124;11.590;2023-08-17T09:14:48;95568.09;;;24.19;76.82
15405;BME280;7801;48.124;11.590;2023-08-17T09:17:13;95570.53;;;24.27;75.95
15405;BME280;7801;48.124;11.590;2023-08-17T09:19:47;95570.91;;;24.26;76.24
15405;BME280;7801;48.124;11.590;2023-08-17T09:22:12;95563.53;;;24.26;76.99
15405;BME280;7801;48.124;11.590;2023-08-17T09:24:37;95563.59;;;24.30;77.15
15405;BME280;7801;48.124;11.590;2023-08-17T09:27:03;95562.88;;;24.40;75.49
15405;BME280;7801;48.124;11.590;2023-08-17T09:29:29;95564.53;;;24.55;73.37
15405;BME280;7801;48.124;11.590;2023-08-17T09:32:06;95561.50;;;24.64;72.84
15405;BME280;7801;48.124;11.590;2023-08-17T09:34:32;95561.94;;;24.77;73.28
15405;BME280;7801;48.124;11.590;2023-08-17T09:37:05;95555.38;;;24.78;73.37
15405;BME280;7801;48.124;11.590;2023-08-17T09:39:31;95559.28;;;24.84;71.72
15405;BME280;7801;48.124;11.590;2023-08-17T09:41:59;95555.41;;;24.85;71.37
15405;BME280;7801;48.124;11.590;2023-08-17T09:44:25;95558.53;;;24.87;72.04
15405;BME280;7801;48.124;11.590;2023-08-17T09:46:51;95557.37;;;24.88;71.13
15405;BME280;7801;48.124;11.590;2023-08-17T09:49:17;95553.88;;;24.87;71.65
15405;BME280;7801;48.124;11.590;2023-08-17T09:51:44;95551.94;;;24.84;71.06
15405;BME280;7801;48.124;11.590;2023-08-17T09:54:30;95543.03;;;24.87;70.99
15405;BME280;7801;48.124;11.590;2023-08-17T09:56:57;95551.94;;;24.88;71.16
15405;BME280;7801;48.124;11.590;2023-08-17T09:59:23;95556.38;;;25.17;69.33
15405;BME280;7801;48.124;11.590;2023-08-17T10:01:50;95553.75;;;25.39;68.41
15405;BME280;7801;48.124;11.590;2023-08-17T10:04:22;95554.97;;;25.59;66.72
15405;BME280;7801;48.124;11.590;2023-08-17T10:06:51;95551.09;;;25.53;67.37
15405;BME280;7801;48.124;11.590;2023-08-17T10:09:22;95553.81;;;25.53;67.08
15405;BME280;7801;48.124;11.590;2023-08-17T10:11:52;95550.37;;;25.63;66.62
15405;BME280;7801;48.124;11.590;2023-08-17T10:14:25;95551.88;;;25.53;66.83
15405;BME280;7801;48.124;11.590;2023-08-17T10:17:07;95549.94;;;25.54;67.32
15405;BME280;7801;48.124;11.590;2023-08-17T10:19:49;95552.66;;;25.54;68.84
15405;BME280;7801;48.124;11.590;2023-08-17T10:22:33;95552.25;;;25.52;68.11
15405;BME280;7801;48.124;11.590;2023-08-17T10:25:03;95544.91;;;25.56;67.40
15405;BME280;7801;48.124;11.590;2023-08-17T10:27:32;95539.06;;;25.61;66.70
15405;BME280;7801;48.124;11.590;2023-08-17T10:29:57;95546.16;;;25.87;65.99
15405;BME280;7801;48.124;11.590;2023-08-17T10:32:23;95555.09;;;26.05;63.48
15405;BME280;7801;48.124;11.590;2023-08-17T10:34:51;95548.09;;;26.00;63.98
15405;BME280;7801;48.124;11.590;2023-08-17T10:37:18;95551.22;;;26.06;62.55
15405;BME280;7801;48.124;11.590;2023-08-17T10:39:48;95551.22;;;26.10;62.29
15405;BME280;7801;48.124;11.590;2023-08-17T10:42:15;95550.84;;;26.08;61.71
15405;BME280;7801;48.124;11.590;2023-08-17T10:44:49;95541.13;;;26.14;61.56
15405;BME280;7801;48.124;11.590;2023-08-17T10:47:21;95544.25;;;26.09;62.46
15405;BME280;7801;48.124;11.590;2023-08-17T10:50:05;95536.84;;;26.02;62.72
15405;BME280;7801;48.124;11.590;2023-08-17T10:52:34;95541.50;;;25.94;62.85
15405;BME280;7801;48.124;11.590;2023-08-17T10:55:02;95548.88;;;25.87;62.94
15405;BME280;7801;48.124;11.590;2023-08-17T10:57:31;95542.28;;;25.77;62.83
15405;BME280;7801;48.124;11.590;2023-08-17T11:00:06;95547.69;;;25.74;64.27
15405;BME280;7801;48.124;11.590;2023-08-17T11:02:38;95539.84;;;25.61;64.21
15405;BME280;7801;48.124;11.590;2023-08-17T11:05:04;95544.94;;;25.63;63.62
15405;BME280;7801;48.124;11.590;2023-08-17T11:07:41;95536.00;;;25.66;62.73
15405;BME280;7801;48.124;11.590;2023-08-17T11:10:29;95539.50;;;25.63;62.89
15405;BME280;7801;48.124;11.590;2023-08-17T11:12:59;95536.03;;;25.70;62.63
15405;BME280;7801;48.124;11.590;2023-08-17T11:15:25;95536.41;;;25.79;62.03
15405;BME280;7801;48.124;11.590;2023-08-17T11:17:52;95541.50;;;25.77;63.19
15405;BME280;7801;48.124;11.590;2023-08-17T11:20:17;95533.72;;;25.75;64.30
15405;BME280;7801;48.124;11.590;2023-08-17T11:22:43;95541.09;;;25.85;64.34
15405;BME280;7801;48.124;11.590;2023-08-17T11:25:08;95527.13;;;25.87;64.17
15405;BME280;7801;48.124;11.590;2023-08-17T11:27:35;95528.31;;;26.28;65.54
15405;BME280;7801;48.124;11.590;2023-08-17T11:30:00;95534.53;;;26.40;65.40
15405;BME280;7801;48.124;11.590;2023-08-17T11:32:26;95533.00;;;26.42;65.33
15405;BME280;7801;48.124;11.590;2023-08-17T11:34:51;95529.09;;;26.50;65.70
15405;BME280;7801;48.124;11.590;2023-08-17T11:37:17;95523.62;;;26.64;65.03
15405;BME280;7801;48.124;11.590;2023-08-17T11:39:42;95521.69;;;26.61;65.38
15405;BME280;7801;48.124;11.590;2023-08-17T11:42:07;95525.53;;;26.82;63.88
15405;BME280;7801;48.124;11.590;2023-08-17T11:44:33;95524.38;;;27.00;64.33
15405;BME280;7801;48.124;11.590;2023-08-17T11:47:00;95514.97;;;27.09;64.67
15405;BME280;7801;48.124;11.590;2023-08-17T11:49:25;95513.41;;;27.11;64.96
15405;BME280;7801;48.124;11.590;2023-08-17T11:51:53;95514.19;;;27.08;64.78
15405;BME280;7801;48.124;11.590;2023-08-17T11:54:18;95516.91;;;27.15;64.80
15405;BME280;7801;48.124;11.590;2023-08-17T11:56:44;95513.41;;;27.11;65.21
15405;BME280;7801;48.124;11.590;2023-08-17T11:59:10;95504.09;;;27.05;64.63
15405;BME280;7801;48.124;11.590;2023-08-17T12:01:39;95499.81;;;27.04;65.32
15405;BME280;7801;48.124;11.590;2023-08-17T12:04:04;95508.00;;;27.04;65.40
15405;BME280;7801;48.124;11.590;2023-08-17T12:06:31;95500.25;;;26.95;65.79
15405;BME280;7801;48.124;11.590;2023-08-17T12:08:56;95502.91;;;27.10;64.40
15405;BME280;7801;48.124;11.590;2023-08-17T12:11:24;95495.50;;;27.17;64.37
15405;BME280;7801;48.124;11.590;2023-08-17T12:13:52;95492.78;;;27.17;65.08
15405;BME280;7801;48.124;11.590;2023-08-17T12:16:18;95497.37;;;27.27;64.24
15405;BME280;7801;48.124;11.590;2023-08-17T12:18:52;95492.69;;;27.35;63.43
15405;BME280;7801;48.124;11.590;2023-08-17T12:21:21;95488.37;;;27.41;63.86
15405;BME280;7801;48.124;11.590;2023-08-17T12:23:47;95494.63;;;27.38;63.56
15405;BME280;7801;48.124;11.590;2023-08-17T12:26:20;95477.16;;;27.25;64.28
15405;BME280;7801;48.124;11.590;2023-08-17T12:28:46;95479.88;;;27.25;64.55
15405;BME280;7801;48.124;11.590;2023-08-17T12:31:11;95474.75;;;27.37;63.81
15405;BME280;7801;48.124;11.590;2023-08-17T12:33:36;95474.75;;;27.37;64.04
15405;BME280;7801;48.124;11.590;2023-08-17T12:36:02;95479.38;;;27.48;63.35
15405;BME280;7801;48.124;11.590;2023-08-17T12:38:29;95472.72;;;27.56;61.36
15405;BME280;7801;48.124;11.590;2023-08-17T12:40:54;95461.47;;;27.47;61.18
15405;BME280;7801;48.124;11.590;2023-08-17T12:43:20;95453.63;;;27.56;61.15
15405;BME280;7801;48.124;11.590;2023-08-17T12:45:46;95458.59;;;27.75;60.16
15405;BME280;7801;48.124;11.590;2023-08-17T12:48:11;95456.63;;;27.76;59.49
15405;BME280;7801;48.124;11.590;2023-08-17T12:50:37;95449.34;;;27.62;60.68
15405;BME280;7801;48.124;11.590;2023-08-17T12:53:02;95453.56;;;27.70;60.04
15405;BME280;7801;48.124;11.590;2023-08-17T12:55:28;95452.41;;;27.67;60.12
15405;BME280;7801;48.124;11.590;2023-08-17T12:57:54;95447.66;;;27.79;58.66
15405;BME280;7801;48.124;11.590;2023-08-17T13:00:21;95440.94;;;27.87;56.37
15405;BME280;7801;48.124;11.590;2023-08-17T13:02:50;95446.81;;;27.85;57.31
15405;BME280;7801;48.124;11.590;2023-08-17T13:05:16;95446.53;;;27.69;57.94